createdAt,value
2023-01-21T00:01:23.175Z,82.69
2023-01-21T00:03:51.448Z,82.84
2023-01-21T00:06:19.758Z,82.56
2023-01-21T00:08:49.340Z,82.62
2023-01-21T00:11:18.029Z,82.83
2023-01-21T00:13:46.493Z,83.17
2023-01-21T00:16:15.041Z,83.35
2023-01-21T00:18:43.450Z,82.98
2023-01-21T00:21:11.745Z,82.92
2023-01-21T00:23:40.019Z,82.69
2023-01-21T00:26:12.510Z,82.95
2023-01-21T00:28:41.782Z,82.59
2023-01-21T00:31:11.958Z,82.93
2023-01-21T00:33:40.468Z,82.88
2023-01-21T00:36:11.732Z,83.18
2023-01-21T00:38:40.420Z,82.99
2023-01-21T00:41:12.521Z,83.13
2023-01-21T00:43:42.070Z,82.80
2023-01-21T00:46:12.024Z,82.47
2023-01-21T00:48:40.731Z,82.94
2023-01-21T00:51:09.903Z,82.70
2023-01-21T00:53:41.838Z,82.52
2023-01-21T00:56:13.918Z,82.71
2023-01-21T00:58:43.392Z,82.75
2023-01-21T01:01:13.681Z,82.83
2023-01-21T01:03:42.797Z,82.94
2023-01-21T01:06:13.911Z,83.03
2023-01-21T01:08:43.786Z,83.15
2023-01-21T01:11:14.693Z,83.51
2023-01-21T01:13:43.423Z,83.29
2023-01-21T01:16:15.643Z,83.28
2023-01-21T01:18:44.571Z,83.29
2023-01-21T01:21:15.390Z,83.33
2023-01-21T01:23:44.861Z,83.72
2023-01-21T01:26:18.067Z,84.08
2023-01-21T01:28:46.932Z,84.11
2023-01-21T01:31:17.893Z,84.12
2023-01-21T01:33:47.284Z,84.45
2023-01-21T01:36:18.210Z,84.62
2023-01-21T01:38:47.527Z,84.68
2023-01-21T01:41:20.230Z,84.54
2023-01-21T01:43:57.318Z,85.04
2023-01-21T01:46:27.850Z,84.74
2023-01-21T01:49:04.141Z,84.94
2023-01-21T01:51:45.929Z,84.95
2023-01-21T01:54:19.756Z,84.95
2023-01-21T01:56:53.540Z,84.91
2023-01-21T01:59:22.194Z,84.63
2023-01-21T02:01:50.848Z,84.49
2023-01-21T02:04:24.689Z,84.25
2023-01-21T02:06:55.853Z,84.75
2023-01-21T02:09:29.593Z,84.32
2023-01-21T02:12:01.553Z,84.35
2023-01-21T02:14:30.808Z,84.24
2023-01-21T02:17:14.410Z,84.27
2023-01-21T02:20:21.724Z,84.50
2023-01-21T02:23:00.451Z,84.64
2023-01-21T02:26:17.683Z,84.40
2023-01-21T02:29:29.994Z,84.17
2023-01-21T02:32:51.428Z,84.11
2023-01-21T02:35:26.022Z,84.20
2023-01-21T02:38:02.298Z,84.34
2023-01-21T02:40:39.715Z,84.23
2023-01-21T02:43:14.875Z,84.36
2023-01-21T02:45:50.958Z,84.63
2023-01-21T02:48:29.436Z,84.36
2023-01-21T02:50:58.064Z,84.79
2023-01-21T02:53:29.085Z,84.78
2023-01-21T02:56:02.604Z,84.79
2023-01-21T02:58:35.469Z,84.51
2023-01-21T03:01:15.949Z,84.67
2023-01-21T03:03:58.400Z,84.68
2023-01-21T03:06:50.961Z,85.04
2023-01-21T03:09:24.188Z,84.77
2023-01-21T03:12:09.070Z,84.84
2023-01-21T03:15:00.476Z,85.00
2023-01-21T03:17:37.539Z,85.04
2023-01-21T03:20:12.700Z,84.72
2023-01-21T03:22:41.592Z,85.10
2023-01-21T03:25:13.105Z,84.69
2023-01-21T03:27:44.339Z,84.97
2023-01-21T03:30:17.191Z,85.10
2023-01-21T03:32:50.611Z,85.03
2023-01-21T03:35:26.262Z,84.42
2023-01-21T03:37:59.630Z,84.77
2023-01-21T03:40:31.940Z,84.59
2023-01-21T03:43:00.438Z,84.81
2023-01-21T03:45:41.060Z,84.55
2023-01-21T03:48:15.345Z,84.65
2023-01-21T03:50:51.002Z,84.87
2023-01-21T03:53:19.551Z,84.93
2023-01-21T03:55:51.068Z,84.70
2023-01-21T03:58:19.577Z,84.87
2023-01-21T04:00:49.263Z,84.89
2023-01-21T04:03:17.629Z,85.04
2023-01-21T04:05:47.305Z,84.94
2023-01-21T04:08:15.610Z,85.14
2023-01-21T04:10:44.167Z,85.25
2023-01-21T04:13:12.486Z,85.48
2023-01-21T04:15:40.778Z,85.38
2023-01-21T04:18:09.155Z,85.41
2023-01-21T04:20:37.950Z,85.19
2023-01-21T04:23:07.707Z,85.37
2023-01-21T04:25:35.987Z,85.86
2023-01-21T04:28:04.497Z,85.57
2023-01-21T04:30:32.799Z,85.93
2023-01-21T04:33:01.134Z,85.75
2023-01-21T04:35:29.587Z,85.84
2023-01-21T04:37:57.924Z,85.86
2023-01-21T04:40:27.627Z,86.05
2023-01-21T04:42:56.017Z,85.88
2023-01-21T04:45:24.353Z,85.72
2023-01-21T04:47:52.655Z,85.46
2023-01-21T04:50:21.751Z,85.38
2023-01-21T04:52:50.008Z,85.62
2023-01-21T04:55:18.742Z,85.38
2023-01-21T04:57:48.471Z,85.74
2023-01-21T05:00:19.434Z,85.88
2023-01-21T05:02:47.890Z,85.31
2023-01-21T05:05:16.340Z,85.49
2023-01-21T05:07:44.799Z,85.25
2023-01-21T05:10:18.092Z,85.28
2023-01-21T05:12:48.530Z,85.30
2023-01-21T05:15:17.228Z,85.01
2023-01-21T05:17:45.522Z,85.04
2023-01-21T05:20:14.410Z,85.04
2023-01-21T05:22:42.715Z,85.34
2023-01-21T05:25:11.368Z,85.25
2023-01-21T05:27:39.648Z,85.05
2023-01-21T05:30:11.421Z,85.06
2023-01-21T05:32:40.890Z,85.07
2023-01-21T05:35:12.099Z,84.60
2023-01-21T05:37:43.325Z,84.48
2023-01-21T05:40:13.394Z,84.94
2023-01-21T05:42:41.931Z,84.22
2023-01-21T05:45:13.623Z,84.74
2023-01-21T05:47:42.101Z,84.59
2023-01-21T05:50:12.416Z,84.83
2023-01-21T05:52:41.329Z,84.63
2023-01-21T05:55:10.085Z,84.51
2023-01-21T05:57:38.418Z,84.62
2023-01-21T06:00:08.708Z,84.56
2023-01-21T06:02:38.409Z,84.73
2023-01-21T06:05:08.101Z,84.89
2023-01-21T06:07:36.438Z,84.38
2023-01-21T06:10:05.422Z,84.21
2023-01-21T06:12:33.800Z,84.35
2023-01-21T06:15:02.056Z,84.38
2023-01-21T06:17:30.405Z,84.41
2023-01-21T06:20:00.091Z,84.22
2023-01-21T06:22:28.373Z,84.12
2023-01-21T06:24:56.682Z,84.00
2023-01-21T06:27:25.096Z,84.00
2023-01-21T06:29:53.355Z,83.93
2023-01-21T06:32:22.049Z,83.77
2023-01-21T06:34:50.323Z,83.83
2023-01-21T06:37:20.027Z,83.68
2023-01-21T06:39:48.417Z,83.60
2023-01-21T06:42:17.929Z,83.36
2023-01-21T06:44:46.294Z,83.55
2023-01-21T06:47:15.145Z,83.42
2023-01-21T06:49:43.859Z,83.48
2023-01-21T06:52:12.224Z,83.75
2023-01-21T06:54:43.248Z,83.32
2023-01-21T06:57:12.035Z,83.19
2023-01-21T06:59:40.455Z,83.15
2023-01-21T07:02:10.430Z,83.16
2023-01-21T07:04:38.755Z,83.08
2023-01-21T07:07:07.816Z,83.29
2023-01-21T07:09:36.121Z,83.06
2023-01-21T07:12:06.294Z,83.12
2023-01-21T07:14:34.668Z,83.31
2023-01-21T07:17:03.122Z,83.01
2023-01-21T07:19:31.369Z,83.17
2023-01-21T07:22:02.087Z,83.30
2023-01-21T07:24:30.460Z,83.48
2023-01-21T07:26:58.780Z,83.56
2023-01-21T07:29:29.443Z,83.64
2023-01-21T07:31:57.742Z,83.75
2023-01-21T07:34:26.130Z,83.48
2023-01-21T07:36:54.421Z,83.43
2023-01-21T07:39:22.864Z,83.22
2023-01-21T07:41:51.247Z,82.99
2023-01-21T07:44:19.585Z,82.93
2023-01-21T07:46:49.368Z,83.26
2023-01-21T07:49:18.401Z,83.59
2023-01-21T07:51:47.280Z,83.77
2023-01-21T07:54:16.304Z,83.97
2023-01-21T07:56:44.606Z,84.12
2023-01-21T07:59:13.440Z,84.45
2023-01-21T08:01:41.883Z,84.66
2023-01-21T08:04:12.204Z,84.38
2023-01-21T08:06:41.408Z,84.56
2023-01-21T08:09:10.860Z,84.54
2023-01-21T08:11:39.308Z,84.36
2023-01-21T08:14:07.621Z,84.89
2023-01-21T08:16:36.123Z,84.31
2023-01-21T08:19:04.356Z,84.50
2023-01-21T08:21:33.967Z,84.16
2023-01-21T08:24:02.908Z,84.03
2023-01-21T08:26:31.219Z,83.58
2023-01-21T08:28:59.548Z,82.48
2023-01-21T08:31:27.915Z,82.13
2023-01-21T08:33:57.882Z,81.51
2023-01-21T08:36:26.833Z,81.05
2023-01-21T08:38:58.556Z,80.67
2023-01-21T08:41:27.000Z,79.96
2023-01-21T08:43:55.331Z,79.59
2023-01-21T08:46:23.654Z,78.77
2023-01-21T08:48:52.227Z,78.55
2023-01-21T08:51:20.600Z,77.43
2023-01-21T08:53:51.223Z,76.50
2023-01-21T08:56:20.801Z,75.42
2023-01-21T08:58:49.077Z,75.02
2023-01-21T09:01:17.489Z,74.06
2023-01-21T09:03:49.101Z,72.79
2023-01-21T09:06:17.400Z,71.72
2023-01-21T09:08:45.716Z,70.85
2023-01-21T09:11:14.094Z,70.72
2023-01-21T09:13:44.836Z,71.48
2023-01-21T09:16:18.665Z,72.29
2023-01-21T09:18:47.394Z,73.02
2023-01-21T09:21:16.836Z,73.05
2023-01-21T09:23:48.200Z,70.98
2023-01-21T09:26:19.016Z,70.97
2023-01-21T09:28:54.408Z,69.86
2023-01-21T09:31:23.958Z,67.47
2023-01-21T09:33:55.640Z,68.61
2023-01-21T09:36:26.212Z,69.32
2023-01-21T09:38:54.838Z,69.78
2023-01-21T09:41:29.087Z,67.42
2023-01-21T09:44:16.073Z,67.01
2023-01-21T09:46:52.506Z,65.57
2023-01-21T09:49:24.237Z,64.12
2023-01-21T09:52:03.380Z,67.27
2023-01-21T09:54:34.558Z,68.66
2023-01-21T09:57:27.657Z,68.35
2023-01-21T10:00:13.437Z,68.92
2023-01-21T10:02:51.286Z,67.81
2023-01-21T10:05:42.564Z,68.70
2023-01-21T10:08:19.295Z,71.25
2023-01-21T10:10:53.405Z,70.17
2023-01-21T10:13:39.700Z,68.55
2023-01-21T10:16:19.135Z,66.83
2023-01-21T10:18:51.784Z,66.22
2023-01-21T10:21:33.367Z,63.85
2023-01-21T10:24:08.007Z,64.37
2023-01-21T10:26:36.708Z,64.54
2023-01-21T10:29:05.763Z,65.43
2023-01-21T10:31:41.797Z,65.40
2023-01-21T10:34:15.056Z,69.87
2023-01-21T10:36:55.385Z,72.75
2023-01-21T10:39:40.416Z,72.70
2023-01-21T10:42:23.649Z,77.03
2023-01-21T10:45:00.976Z,77.62
2023-01-21T10:47:40.926Z,77.16
2023-01-21T10:50:28.977Z,76.75
2023-01-21T10:53:02.348Z,77.57
2023-01-21T10:56:03.284Z,77.13
2023-01-21T10:58:37.645Z,77.34
2023-01-21T11:01:13.700Z,76.24
2023-01-21T11:03:46.137Z,72.90
2023-01-21T11:06:19.187Z,70.85
2023-01-21T11:08:52.547Z,71.99
2023-01-21T11:11:28.394Z,70.38
2023-01-21T11:13:57.245Z,69.69
2023-01-21T11:16:46.483Z,69.26
2023-01-21T11:19:18.815Z,68.49
2023-01-21T11:22:01.559Z,67.77
2023-01-21T11:24:32.084Z,67.34
2023-01-21T11:27:02.349Z,66.23
2023-01-21T11:29:42.004Z,66.43
2023-01-21T11:32:20.645Z,66.00
2023-01-21T11:34:52.037Z,65.32
2023-01-21T11:37:25.200Z,64.21
2023-01-21T11:39:57.263Z,64.39
2023-01-21T11:42:26.198Z,65.87
2023-01-21T11:44:57.564Z,65.91
2023-01-21T11:47:38.886Z,65.23
2023-01-21T11:50:16.757Z,65.02
2023-01-21T11:52:45.438Z,65.19
2023-01-21T11:55:24.745Z,65.33
2023-01-21T11:57:55.441Z,65.72
2023-01-21T12:00:25.337Z,66.74
2023-01-21T12:02:58.211Z,67.26
2023-01-21T12:05:33.989Z,66.14
2023-01-21T12:08:04.119Z,68.07
2023-01-21T12:10:36.133Z,72.37
2023-01-21T12:13:24.409Z,75.74
2023-01-21T12:16:29.034Z,78.27
2023-01-21T12:19:33.040Z,75.86
2023-01-21T12:22:36.655Z,78.31
2023-01-21T12:25:26.535Z,78.81
2023-01-21T12:28:16.942Z,79.97
2023-01-21T12:30:57.775Z,79.64
2023-01-21T12:33:46.518Z,77.33
2023-01-21T12:36:20.534Z,79.47
2023-01-21T12:38:57.343Z,79.56
2023-01-21T12:41:30.749Z,79.55
2023-01-21T12:44:15.473Z,80.33
2023-01-21T12:46:48.617Z,80.32
2023-01-21T12:49:22.040Z,79.55
2023-01-21T12:51:55.619Z,79.26
2023-01-21T12:54:37.151Z,80.07
2023-01-21T12:57:17.701Z,79.22
2023-01-21T12:59:53.527Z,77.72
2023-01-21T13:02:30.043Z,74.95
2023-01-21T13:05:04.753Z,74.74
2023-01-21T13:07:44.752Z,74.90
2023-01-21T13:10:23.299Z,75.87
2023-01-21T13:12:57.282Z,77.48
2023-01-21T13:15:31.421Z,76.93
2023-01-21T13:18:05.775Z,76.18
2023-01-21T13:20:41.429Z,75.00
2023-01-21T13:23:16.833Z,73.71
2023-01-21T13:25:55.354Z,71.65
2023-01-21T13:28:31.657Z,70.53
2023-01-21T13:31:09.085Z,69.66
2023-01-21T13:33:48.087Z,66.66
2023-01-21T13:36:40.343Z,66.84
2023-01-21T13:39:22.761Z,68.25
2023-01-21T13:42:08.743Z,68.99
2023-01-21T13:45:08.586Z,68.49
2023-01-21T13:48:14.302Z,67.00
2023-01-21T13:50:58.748Z,66.05
2023-01-21T13:53:44.675Z,65.03
2023-01-21T13:56:41.006Z,64.78
2023-01-21T13:59:17.602Z,63.61
2023-01-21T14:01:50.821Z,62.26
2023-01-21T14:04:26.859Z,62.32
2023-01-21T14:07:02.035Z,63.11
2023-01-21T14:09:38.389Z,63.20
2023-01-21T14:12:13.404Z,66.90
2023-01-21T14:15:19.116Z,69.55
2023-01-21T14:18:15.393Z,70.71
2023-01-21T14:21:08.792Z,71.86
2023-01-21T14:23:55.680Z,72.57
2023-01-21T14:26:54.418Z,73.16
2023-01-21T14:29:34.877Z,72.19
2023-01-21T14:32:15.431Z,72.15
2023-01-21T14:34:55.426Z,74.35
2023-01-21T14:37:30.837Z,75.48
2023-01-21T14:40:11.100Z,76.58
2023-01-21T14:42:46.257Z,75.95
2023-01-21T14:45:16.699Z,76.37
2023-01-21T14:47:48.247Z,74.50
2023-01-21T14:50:47.111Z,74.62
2023-01-21T14:53:23.917Z,72.96
2023-01-21T14:56:10.603Z,71.35
2023-01-21T14:58:39.592Z,70.15
2023-01-21T15:01:08.272Z,69.45
2023-01-21T15:03:49.536Z,68.73
2023-01-21T15:06:23.364Z,67.73
2023-01-21T15:08:54.882Z,67.48
2023-01-21T15:11:30.357Z,67.10
2023-01-21T15:14:13.488Z,66.28
2023-01-21T15:16:43.532Z,65.98
2023-01-21T15:19:34.568Z,64.86
2023-01-21T15:22:18.338Z,64.91
2023-01-21T15:25:34.266Z,64.57
2023-01-21T15:28:43.784Z,64.49
2023-01-21T15:31:40.015Z,64.18
2023-01-21T15:34:15.632Z,63.94
2023-01-21T15:36:57.107Z,64.20
2023-01-21T15:39:32.516Z,64.18
2023-01-21T15:42:17.371Z,64.19
2023-01-21T15:45:23.593Z,64.31
2023-01-21T15:48:14.043Z,64.01
2023-01-21T15:50:49.900Z,63.82
2023-01-21T15:53:39.817Z,63.55
2023-01-21T15:56:36.791Z,64.13
2023-01-21T15:59:21.747Z,64.11
2023-01-21T16:02:10.255Z,64.65
2023-01-21T16:04:47.414Z,64.36
2023-01-21T16:07:26.190Z,64.76
2023-01-21T16:10:07.928Z,64.59
2023-01-21T16:12:47.824Z,65.59
2023-01-21T16:15:26.656Z,65.58
2023-01-21T16:18:09.214Z,66.32
2023-01-21T16:20:37.943Z,67.05
2023-01-21T16:23:08.919Z,67.76
2023-01-21T16:25:47.524Z,68.67
2023-01-21T16:28:16.211Z,72.08
2023-01-21T16:30:55.716Z,77.08
2023-01-21T16:33:24.335Z,80.19
2023-01-21T16:35:56.190Z,82.49
2023-01-21T16:38:27.539Z,84.81
2023-01-21T16:41:25.245Z,85.14
2023-01-21T16:43:57.074Z,85.72
2023-01-21T16:46:28.534Z,85.96
2023-01-21T16:48:58.656Z,87.38
2023-01-21T16:51:32.606Z,91.14
2023-01-21T16:54:27.771Z,92.83
2023-01-21T16:57:00.970Z,91.72
2023-01-21T16:59:33.461Z,92.68
2023-01-21T17:02:02.315Z,92.52
2023-01-21T17:04:31.467Z,92.67
2023-01-21T17:07:00.469Z,92.14
2023-01-21T17:09:33.171Z,91.65
2023-01-21T17:12:08.663Z,91.30
2023-01-21T17:14:38.139Z,91.12
2023-01-21T17:17:09.264Z,90.36
2023-01-21T17:19:45.732Z,89.76
2023-01-21T17:22:18.905Z,88.91
2023-01-21T17:25:02.353Z,89.60
2023-01-21T17:27:33.421Z,88.74
2023-01-21T17:30:29.812Z,89.94
2023-01-21T17:33:00.523Z,91.88
2023-01-21T17:35:32.966Z,91.84
2023-01-21T17:38:03.308Z,91.93
2023-01-21T17:40:34.349Z,92.05
2023-01-21T17:43:19.302Z,91.19
2023-01-21T17:45:50.015Z,90.46
2023-01-21T17:48:27.467Z,90.46
2023-01-21T17:50:56.643Z,89.83
2023-01-21T17:53:30.907Z,89.38
2023-01-21T17:56:05.755Z,88.68
2023-01-21T17:58:49.411Z,88.51
2023-01-21T18:01:20.246Z,87.99
2023-01-21T18:03:48.763Z,87.90
2023-01-21T18:06:21.785Z,87.81
2023-01-21T18:08:51.446Z,86.98
2023-01-21T18:11:20.112Z,86.72
2023-01-21T18:13:50.307Z,86.13
2023-01-21T18:16:18.785Z,86.22
2023-01-21T18:18:47.166Z,86.12
2023-01-21T18:21:21.336Z,85.69
2023-01-21T18:23:52.908Z,86.11
2023-01-21T18:26:34.808Z,86.52
2023-01-21T18:29:04.634Z,86.40
2023-01-21T18:31:33.131Z,86.18
2023-01-21T18:34:01.652Z,86.42
2023-01-21T18:36:30.636Z,86.58
2023-01-21T18:38:58.926Z,86.37
2023-01-21T18:41:27.229Z,86.47
2023-01-21T18:43:55.659Z,86.11
2023-01-21T18:46:25.395Z,86.38
2023-01-21T18:48:54.060Z,86.06
2023-01-21T18:51:22.501Z,85.64
2023-01-21T18:53:50.979Z,85.77
2023-01-21T18:56:19.452Z,85.58
2023-01-21T18:58:47.825Z,85.19
2023-01-21T19:01:23.205Z,84.90
2023-01-21T19:03:55.615Z,85.14
2023-01-21T19:06:26.025Z,84.67
2023-01-21T19:08:55.196Z,84.88
2023-01-21T19:11:23.842Z,84.51
2023-01-21T19:13:52.655Z,84.74
2023-01-21T19:16:22.871Z,84.07
2023-01-21T19:18:51.554Z,84.37
2023-01-21T19:21:21.221Z,84.19
2023-01-21T19:23:49.522Z,84.36
2023-01-21T19:26:18.264Z,85.21
2023-01-21T19:28:46.555Z,86.10
2023-01-21T19:31:14.894Z,85.66
2023-01-21T19:33:45.734Z,85.56
2023-01-21T19:36:19.752Z,85.50
2023-01-21T19:38:55.317Z,85.10
2023-01-21T19:41:24.387Z,84.92
2023-01-21T19:43:52.843Z,84.50
2023-01-21T19:46:23.377Z,83.88
2023-01-21T19:48:53.511Z,83.24
2023-01-21T19:51:22.029Z,83.38
2023-01-21T19:53:51.739Z,83.16
2023-01-21T19:56:24.984Z,83.49
2023-01-21T19:58:53.439Z,82.96
2023-01-21T20:01:21.882Z,83.24
2023-01-21T20:03:59.632Z,83.44
2023-01-21T20:06:31.733Z,83.59
2023-01-21T20:09:02.251Z,83.44
2023-01-21T20:11:30.422Z,83.35
2023-01-21T20:13:59.090Z,83.06
2023-01-21T20:16:27.579Z,82.97
2023-01-21T20:18:56.373Z,82.47
2023-01-21T20:21:25.003Z,82.99
2023-01-21T20:23:53.333Z,82.44
2023-01-21T20:26:27.339Z,82.41
2023-01-21T20:28:55.736Z,82.46
2023-01-21T20:31:24.368Z,82.75
2023-01-21T20:33:53.056Z,83.33
2023-01-21T20:36:24.406Z,83.82
2023-01-21T20:38:54.072Z,83.78
2023-01-21T20:41:24.060Z,83.63
2023-01-21T20:43:52.458Z,83.90
2023-01-21T20:46:24.780Z,83.62
2023-01-21T20:48:53.413Z,83.39
2023-01-21T20:51:22.255Z,83.01
2023-01-21T20:53:50.712Z,83.06
2023-01-21T20:56:26.978Z,83.40
2023-01-21T20:58:55.470Z,83.45
2023-01-21T21:01:26.491Z,83.57
2023-01-21T21:03:54.978Z,83.79
2023-01-21T21:06:26.150Z,83.80
2023-01-21T21:08:54.561Z,83.73
2023-01-21T21:11:25.679Z,83.64
2023-01-21T21:13:54.275Z,83.69
2023-01-21T21:16:26.280Z,84.32
2023-01-21T21:18:56.227Z,84.11
2023-01-21T21:21:25.327Z,83.94
2023-01-21T21:23:54.047Z,84.24
2023-01-21T21:26:26.464Z,84.70
2023-01-21T21:28:57.268Z,85.11
2023-01-21T21:31:27.553Z,85.24
2023-01-21T21:33:55.889Z,85.51
2023-01-21T21:36:25.056Z,85.32
2023-01-21T21:38:56.082Z,85.68
2023-01-21T21:41:44.785Z,86.00
2023-01-21T21:44:13.963Z,86.19
2023-01-21T21:47:00.292Z,86.22
2023-01-21T21:49:29.287Z,86.27
2023-01-21T21:51:59.775Z,86.21
2023-01-21T21:54:27.902Z,86.34
2023-01-21T21:56:58.332Z,86.69
2023-01-21T21:59:26.749Z,86.82
2023-01-21T22:01:55.120Z,87.19
2023-01-21T22:04:23.802Z,87.20
2023-01-21T22:06:52.051Z,87.13
2023-01-21T22:09:20.748Z,87.24
2023-01-21T22:11:49.044Z,86.91
2023-01-21T22:14:18.895Z,87.46
2023-01-21T22:16:49.676Z,87.41
2023-01-21T22:19:18.246Z,87.71
2023-01-21T22:21:46.755Z,87.43
2023-01-21T22:24:15.714Z,87.38
2023-01-21T22:26:44.116Z,87.30
2023-01-21T22:29:12.891Z,86.91
2023-01-21T22:31:43.455Z,86.43
2023-01-21T22:34:12.811Z,85.73
2023-01-21T22:36:42.084Z,85.06
2023-01-21T22:39:11.618Z,84.57
2023-01-21T22:41:39.891Z,84.16
2023-01-21T22:44:08.259Z,83.44
2023-01-21T22:46:36.600Z,83.60
2023-01-21T22:49:06.541Z,83.02
2023-01-21T22:51:34.971Z,83.36
2023-01-21T22:54:03.318Z,82.83
2023-01-21T22:56:50.496Z,82.78
2023-01-21T22:59:19.940Z,82.75
2023-01-21T23:01:48.769Z,82.66
2023-01-21T23:04:18.567Z,82.51
2023-01-21T23:06:48.673Z,82.74
2023-01-21T23:09:17.686Z,82.76
2023-01-21T23:11:45.964Z,82.54
2023-01-21T23:14:14.534Z,81.82
2023-01-21T23:16:42.876Z,81.53
2023-01-21T23:19:11.332Z,81.28
2023-01-21T23:21:41.406Z,81.28
2023-01-21T23:24:10.220Z,81.44
2023-01-21T23:26:38.784Z,81.18
2023-01-21T23:29:07.150Z,80.98
2023-01-21T23:31:35.707Z,81.25
2023-01-21T23:34:04.319Z,81.44
2023-01-21T23:36:32.651Z,81.79
2023-01-21T23:39:02.354Z,81.52
2023-01-21T23:41:30.661Z,81.72
2023-01-21T23:44:00.857Z,81.83
2023-01-21T23:46:29.393Z,81.90
2023-01-21T23:48:57.675Z,82.10
2023-01-21T23:51:26.204Z,81.83
2023-01-21T23:53:54.486Z,81.90
2023-01-21T23:56:26.163Z,81.80
2023-01-21T23:58:54.652Z,81.35
